Portada
METAR-TAF:

METAR-TAF

Aeroports :

Coffs Harbour, Austràlia

latitud: 30-19-12S, longitud: 153-07-00E, altitud: 5 m

Observació

L'informe es va fer fa 8 hores i 22 minuts, a les 15:30 UTC
Vent 5 kt del Nord-Oest
Temperatura 10°C
Humitat 87%
Pressió 1012 hPa
Visibilitat 10 km o més

METAR: YCFS 031530Z AUTO 32005KT 9999 // NCD 10/08 Q1012 RF00.0/000.0

Hora: 09:52 (23:52 UTC)

Pronòstic

L'informe es va fer fa 6 hores i 48 minuts, a les 17:04 UTC
Pronòstic vàlid del 03 a les 18 UTC al 04 a les 18 UTC
Vent 7 kt del Oest
Visibilitat 10 km o més
Escasses núvols a una alçada de 2000 ft
A partir de les 04 a les 0200 UTC
Vent 6 kt del Nord-Est
Visibilitat 10 km o més
sense núvols per sota de 1500 mi sense presència de cumulonimbus.
A partir de les 04 a les 1000 UTC
Vent 5 kt del Sud-Oest
Visibilitat 10 km o més
sense núvols per sota de 1500 mi sense presència de cumulonimbus.

TAF: YCFS 031704Z 0318/0418 28007KT 9999 FEW020 FM040200 05006KT CAVOK FM041000 23005KT CAVOK

Observacions i pronòstics meteorològics de més de 4000 aeroports (METAR i TAF).

Les estacions disponibles són els punts grocs i vermells al mapa.

Posi el ratolí al punt desitjat per veure el nom de l'estació.

Feu clic per veure les observacions i els pronòstics meteorològics.

Per canviar el mapa: feu clic els botons verds amb una creu de color negre per apropar; al botó verd amb un guió per allunyar la imatge; o en les fletxes verdes per a mapes adjacents.


METAR-TAF: